Time;durP1;ratioP1;P1;durP2;ratioP2;P2;SDS_P1;SDS_P2;PMS_P1;PMS_P2;Temp;Humidity;BMP_temperature;BMP_pressure;BME280_temperature;BME280_humidity;BME280_pressure;Samples;Min_cycle;Max_cycle;Signal;HPM_P1;HPM_P2
2022/05/22 00:01:17;;;;;;;8.23;3.88;;;7.90;99.90;;;;;;4926893;29;20078;-86
2022/05/22 00:03:44;;;;;;;8.30;3.03;;;7.90;99.90;;;;;;4904651;29;20090;-86
2022/05/22 00:06:11;;;;;;;4.25;3.08;;;8.00;99.90;;;;;;4930687;28;20047;-86
2022/05/22 00:08:38;;;;;;;5.65;3.30;;;8.00;99.90;;;;;;4932012;28;20078;-86
2022/05/22 00:11:05;;;;;;;6.53;3.40;;;8.00;99.90;;;;;;4928134;29;20046;-87
2022/05/22 00:13:32;;;;;;;7.90;4.28;;;8.00;99.90;;;;;;4927304;28;20043;-86
2022/05/22 00:18:45;;;;;;;10.65;3.47;;;8.00;99.90;;;;;;4937131;28;20082;-87
2022/05/22 00:21:12;;;;;;;5.35;2.95;;;8.00;99.90;;;;;;4942901;28;20097;-89
2022/05/22 00:23:39;;;;;;;6.72;2.83;;;8.00;99.90;;;;;;4908273;28;20059;-85
2022/05/22 00:26:06;;;;;;;6.97;3.50;;;8.00;99.90;;;;;;4929867;29;20059;-87
2022/05/22 00:28:33;;;;;;;7.10;3.05;;;8.10;99.90;;;;;;4944952;28;20051;-87
2022/05/22 00:31:00;;;;;;;7.55;3.20;;;8.00;99.90;;;;;;4944157;28;20040;-87
2022/05/22 00:33:28;;;;;;;4.05;3.30;;;8.00;99.90;;;;;;4919448;28;20094;-89
2022/05/22 00:35:55;;;;;;;13.63;4.30;;;8.00;99.90;;;;;;4929285;29;20373;-88
2022/05/22 00:38:23;;;;;;;4.80;3.80;;;8.10;99.90;;;;;;4924212;29;20117;-86
2022/05/22 00:40:50;;;;;;;10.15;3.40;;;8.10;99.90;;;;;;4928456;28;20574;-87
2022/05/22 00:43:28;;;;;;;9.48;3.65;;;8.10;99.90;;;;;;4943939;28;20086;-87
2022/05/22 00:45:57;;;;;;;7.90;4.32;;;8.10;99.90;;;;;;4945714;28;20055;-86
2022/05/22 00:48:25;;;;;;;5.95;2.95;;;8.10;99.90;;;;;;4930513;28;20051;-88
2022/05/22 00:50:57;;;;;;;5.95;2.97;;;8.10;99.90;;;;;;4930121;28;20480;-87
2022/05/22 00:53:25;;;;;;;3.42;2.38;;;8.10;99.90;;;;;;4926893;28;20711;-87
2022/05/22 00:55:53;;;;;;;6.65;3.72;;;8.10;99.90;;;;;;4926119;28;20058;-87
2022/05/22 00:58:24;;;;;;;8.00;2.75;;;8.10;99.90;;;;;;4939971;28;20051;-87
2022/05/22 01:00:51;;;;;;;8.93;4.20;;;8.10;99.90;;;;;;4913078;29;20500;-89
2022/05/22 01:03:27;;;;;;;7.00;2.90;;;8.10;99.90;;;;;;4930489;28;20039;-89
2022/05/22 01:06:02;;;;;;;7.43;3.40;;;8.10;99.90;;;;;;4935010;28;20705;-90
2022/05/22 01:08:31;;;;;;;8.00;3.22;;;8.10;99.90;;;;;;4928172;29;20057;-88
2022/05/22 01:11:11;;;;;;;4.75;3.28;;;8.10;99.90;;;;;;4942796;28;20061;-89
2022/05/22 01:13:42;;;;;;;7.10;3.57;;;8.10;99.90;;;;;;4924862;28;20055;-89
2022/05/22 01:16:09;;;;;;;5.05;3.00;;;8.10;99.90;;;;;;4923271;29;20054;-89
2022/05/22 01:18:57;;;;;;;4.95;2.72;;;8.10;99.90;;;;;;4930366;28;20804;-89
2022/05/22 01:21:34;;;;;;;3.33;2.97;;;8.10;99.90;;;;;;4935369;28;20051;-89
2022/05/22 01:24:02;;;;;;;7.55;4.25;;;8.10;99.90;;;;;;4927761;28;20047;-88
2022/05/22 01:26:32;;;;;;;9.38;3.35;;;8.00;99.90;;;;;;4929240;29;20755;-87
2022/05/22 01:29:20;;;;;;;9.45;4.03;;;8.10;99.90;;;;;;4943628;28;20087;-88
2022/05/22 01:31:47;;;;;;;4.40;4.00;;;8.10;99.90;;;;;;4942357;28;20051;-89
2022/05/22 01:34:15;;;;;;;7.95;4.15;;;8.00;99.90;;;;;;4928059;29;20070;-89
2022/05/22 01:36:41;;;;;;;7.53;3.92;;;8.00;99.90;;;;;;4943763;28;20102;-87
2022/05/22 01:39:09;;;;;;;6.53;3.33;;;8.10;99.90;;;;;;4923635;28;20062;-88
2022/05/22 01:41:50;;;;;;;10.70;4.70;;;8.10;99.90;;;;;;4929267;28;20058;-88
2022/05/22 01:44:19;;;;;;;4.80;2.67;;;8.00;99.90;;;;;;4944059;28;20151;-88
2022/05/22 01:46:46;;;;;;;6.82;3.90;;;8.00;99.90;;;;;;4913302;29;20043;-88
2022/05/22 01:49:14;;;;;;;6.15;4.18;;;8.00;99.90;;;;;;4920438;28;20039;-88
2022/05/22 01:51:42;;;;;;;5.05;2.90;;;8.00;99.90;;;;;;4932304;29;20090;-88
2022/05/22 01:54:11;;;;;;;5.65;2.80;;;8.00;99.90;;;;;;4912941;29;20058;-89
2022/05/22 01:56:40;;;;;;;8.13;3.97;;;8.00;99.90;;;;;;4918887;28;20051;-89
2022/05/22 01:59:08;;;;;;;9.98;4.15;;;8.00;99.90;;;;;;4933158;29;20047;-89
2022/05/22 02:01:39;;;;;;;3.40;3.10;;;8.00;99.90;;;;;;4930940;29;20047;-89
2022/05/22 02:04:09;;;;;;;9.00;3.70;;;8.00;99.90;;;;;;4942081;29;20060;-89
2022/05/22 02:08:18;;;;;;;4.25;3.28;;;7.90;99.90;;;;;;4941184;28;20402;-88
2022/05/22 02:09:28;;;;;;;7.60;3.83;;;7.90;99.90;;;;;;4920765;29;20150;-88
2022/05/22 02:11:55;;;;;;;8.40;4.38;;;7.90;99.90;;;;;;4914570;29;20045;-88
2022/05/22 02:14:22;;;;;;;6.18;5.07;;;7.90;99.90;;;;;;4930079;29;20059;-88
2022/05/22 02:16:58;;;;;;;5.05;4.07;;;7.90;99.90;;;;;;4915822;29;20058;-88
2022/05/22 02:19:25;;;;;;;8.48;3.75;;;7.90;99.90;;;;;;4910781;29;20409;-88
2022/05/22 02:21:52;;;;;;;4.30;3.85;;;7.90;99.90;;;;;;4912763;29;20488;-89
2022/05/22 02:24:20;;;;;;;5.80;4.00;;;7.90;99.90;;;;;;4914526;29;20055;-87
2022/05/22 02:27:08;;;;;;;4.00;3.22;;;7.90;99.90;;;;;;4914592;29;20048;-88
2022/05/22 02:29:36;;;;;;;8.02;4.45;;;7.90;99.90;;;;;;4910984;29;20050;-88
2022/05/22 02:32:04;;;;;;;7.63;4.13;;;7.80;99.90;;;;;;4934267;28;20043;-88
2022/05/22 02:34:33;;;;;;;5.22;3.45;;;7.80;99.90;;;;;;4925584;29;20050;-88
2022/05/22 02:37:02;;;;;;;7.55;4.28;;;7.90;99.90;;;;;;4927757;29;20059;-89
2022/05/22 02:39:30;;;;;;;7.10;3.88;;;7.80;99.90;;;;;;4916705;28;20043;-88
2022/05/22 02:42:07;;;;;;;7.80;3.55;;;7.90;99.90;;;;;;4914507;29;20047;-88
2022/05/22 02:44:34;;;;;;;8.95;4.18;;;7.80;99.90;;;;;;4927016;29;20461;-88
2022/05/22 02:47:02;;;;;;;8.88;4.75;;;7.90;99.90;;;;;;4928724;29;20177;-87
2022/05/22 02:49:29;;;;;;;6.65;4.03;;;7.90;99.90;;;;;;4910531;29;20933;-85
2022/05/22 02:51:56;;;;;;;11.13;3.97;;;7.90;99.90;;;;;;4932176;29;20532;-86
2022/05/22 02:54:24;;;;;;;7.65;3.78;;;7.90;99.90;;;;;;4911485;29;20047;-85
2022/05/22 02:56:58;;;;;;;4.85;3.35;;;7.80;99.90;;;;;;4915517;29;20678;-85
2022/05/22 02:59:35;;;;;;;4.35;3.95;;;7.90;99.90;;;;;;4929251;29;20043;-86
2022/05/22 03:02:10;;;;;;;10.05;4.32;;;7.90;99.90;;;;;;4903558;29;20847;-85
2022/05/22 03:04:37;;;;;;;3.75;3.45;;;7.90;99.90;;;;;;4910936;29;20051;-85
2022/05/22 03:07:08;;;;;;;10.27;5.20;;;7.80;99.90;;;;;;4897977;29;20047;-85
2022/05/22 03:09:38;;;;;;;8.30;4.90;;;7.80;99.90;;;;;;4937824;28;20172;-85
2022/05/22 03:12:14;;;;;;;8.02;3.78;;;7.90;99.90;;;;;;4929056;29;20110;-86
2022/05/22 03:14:51;;;;;;;7.85;4.38;;;7.90;99.90;;;;;;4942260;28;20048;-87
2022/05/22 03:17:19;;;;;;;4.95;4.00;;;7.90;99.90;;;;;;4929422;28;20062;-87
2022/05/22 03:19:53;;;;;;;5.15;3.90;;;7.90;99.90;;;;;;4940721;28;20528;-87
2022/05/22 03:22:20;;;;;;;7.95;4.55;;;7.90;99.90;;;;;;4930423;28;20058;-87
2022/05/22 03:24:49;;;;;;;10.98;3.83;;;7.90;99.90;;;;;;4930588;29;20090;-86
2022/05/22 03:27:19;;;;;;;8.73;4.10;;;7.90;99.90;;;;;;4929480;28;20047;-87
2022/05/22 03:29:51;;;;;;;6.80;3.75;;;7.90;99.90;;;;;;4938816;28;20091;-87
2022/05/22 03:32:18;;;;;;;10.25;6.10;;;7.90;99.90;;;;;;4924589;29;20063;-86
2022/05/22 03:34:48;;;;;;;7.28;4.20;;;7.90;99.90;;;;;;4920111;29;20424;-87
2022/05/22 03:37:15;;;;;;;11.30;4.43;;;7.90;99.90;;;;;;4944271;28;20508;-86
2022/05/22 03:39:42;;;;;;;5.57;4.80;;;7.90;99.90;;;;;;4928744;29;20653;-87
2022/05/22 03:42:10;;;;;;;6.18;4.28;;;7.90;99.90;;;;;;4947522;28;20062;-86
2022/05/22 03:44:38;;;;;;;6.80;4.57;;;8.00;99.90;;;;;;4927110;29;20051;-86
2022/05/22 03:47:06;;;;;;;11.57;3.92;;;8.00;99.90;;;;;;4929640;29;20044;-86
2022/05/22 03:49:49;;;;;;;5.30;3.90;;;8.00;99.90;;;;;;4924839;29;20424;-86
2022/05/22 03:52:16;;;;;;;9.13;4.38;;;8.00;99.90;;;;;;4929070;29;20502;-87
2022/05/22 03:54:43;;;;;;;6.57;4.03;;;8.00;99.90;;;;;;4926087;28;20513;-87
2022/05/22 03:57:13;;;;;;;7.30;4.95;;;8.00;99.90;;;;;;4927736;28;20069;-86
2022/05/22 03:59:41;;;;;;;6.40;4.05;;;8.10;99.90;;;;;;4911482;29;20059;-86
2022/05/22 04:02:10;;;;;;;8.68;3.78;;;8.10;99.90;;;;;;4943400;28;20043;-86
2022/05/22 04:04:37;;;;;;;7.90;4.35;;;8.10;99.90;;;;;;4929318;28;20050;-86
2022/05/22 04:07:25;;;;;;;9.20;4.15;;;8.10;99.90;;;;;;4944419;28;20075;-85
2022/05/22 04:09:56;;;;;;;7.72;4.05;;;8.10;99.90;;;;;;4909472;28;20067;-86
2022/05/22 04:12:37;;;;;;;11.40;4.13;;;8.10;99.90;;;;;;4941858;28;20047;-86
2022/05/22 04:15:08;;;;;;;9.45;4.25;;;8.10;99.90;;;;;;4943490;28;20048;-87
2022/05/22 04:17:36;;;;;;;15.50;5.93;;;8.10;99.90;;;;;;4924319;28;20433;-86
2022/05/22 04:20:17;;;;;;;9.25;4.47;;;8.10;99.90;;;;;;4942067;28;20123;-85
2022/05/22 04:25:30;;;;;;;7.00;4.70;;;8.10;99.90;;;;;;4918655;28;20586;-88
2022/05/22 04:27:58;;;;;;;5.55;4.65;;;8.20;99.90;;;;;;4932881;28;20059;-86
2022/05/22 04:30:25;;;;;;;7.22;4.38;;;8.20;99.90;;;;;;4938089;28;20162;-86
2022/05/22 04:33:18;;;;;;;6.47;5.88;;;8.20;99.90;;;;;;4928971;28;20047;-86
2022/05/22 04:35:47;;;;;;;10.57;5.50;;;8.20;99.90;;;;;;4928646;28;20455;-85
2022/05/22 04:38:14;;;;;;;9.20;4.13;;;8.20;99.90;;;;;;4928622;28;20039;-84
2022/05/22 04:40:42;;;;;;;5.93;4.47;;;8.20;99.90;;;;;;4944254;28;20106;-87
2022/05/22 04:43:12;;;;;;;6.63;4.25;;;8.20;99.90;;;;;;4926716;28;20051;-85
2022/05/22 04:45:40;;;;;;;8.23;4.80;;;8.20;99.90;;;;;;4944687;28;20047;-85
2022/05/22 04:48:21;;;;;;;8.13;4.73;;;8.20;99.90;;;;;;4933849;29;20134;-86
2022/05/22 04:50:56;;;;;;;5.75;3.78;;;8.20;99.90;;;;;;4934690;29;20078;-85
2022/05/22 04:53:30;;;;;;;6.75;4.82;;;8.30;99.90;;;;;;4923819;28;20380;-86
2022/05/22 04:56:12;;;;;;;5.32;4.47;;;8.20;99.90;;;;;;4926561;29;20090;-86
2022/05/22 04:58:46;;;;;;;7.22;3.83;;;8.30;99.90;;;;;;4924244;29;20059;-87
2022/05/22 05:01:15;;;;;;;7.35;3.80;;;8.30;99.90;;;;;;4926131;28;20394;-86
2022/05/22 05:03:52;;;;;;;10.18;4.32;;;8.30;99.90;;;;;;4925983;29;20055;-85
2022/05/22 05:06:19;;;;;;;7.38;4.57;;;8.30;99.90;;;;;;4927501;28;21531;-87
2022/05/22 05:08:50;;;;;;;10.73;4.07;;;8.30;99.90;;;;;;4922795;29;20594;-86
2022/05/22 05:11:24;;;;;;;9.77;4.07;;;8.30;99.90;;;;;;4927560;28;20051;-86
2022/05/22 05:13:57;;;;;;;7.40;5.20;;;8.40;99.90;;;;;;4927694;29;20051;-87
2022/05/22 05:16:24;;;;;;;7.10;4.07;;;8.40;99.90;;;;;;4926708;29;20067;-86
2022/05/22 05:19:01;;;;;;;11.02;4.82;;;8.40;99.90;;;;;;4928945;29;20049;-86
2022/05/22 05:21:30;;;;;;;8.82;5.70;;;8.40;99.90;;;;;;4927640;28;20043;-85
2022/05/22 05:24:00;;;;;;;10.93;4.93;;;8.50;99.90;;;;;;4932530;29;20059;-86
2022/05/22 05:26:30;;;;;;;10.27;4.20;;;8.40;99.90;;;;;;4920789;29;20630;-85
2022/05/22 05:29:00;;;;;;;8.02;4.45;;;8.50;99.90;;;;;;4947897;28;20138;-85
2022/05/22 05:31:34;;;;;;;7.82;3.67;;;8.50;99.90;;;;;;4938801;28;20052;-86
2022/05/22 05:34:07;;;;;;;10.05;5.00;;;8.50;99.90;;;;;;4926152;28;20074;-86
2022/05/22 05:36:57;;;;;;;6.28;3.72;;;8.50;99.90;;;;;;4928581;28;20051;-85
2022/05/22 05:39:40;;;;;;;10.98;4.72;;;8.50;99.90;;;;;;4951830;28;20059;-85
2022/05/22 05:42:40;;;;;;;6.13;4.47;;;8.50;99.90;;;;;;4920483;29;20059;-85
2022/05/22 05:45:10;;;;;;;9.35;4.10;;;8.60;99.90;;;;;;4925780;29;20054;-85
2022/05/22 05:47:49;;;;;;;8.77;4.82;;;8.50;99.90;;;;;;4925986;29;20058;-86
2022/05/22 05:50:36;;;;;;;9.05;4.10;;;8.50;99.90;;;;;;4942439;28;20044;-86
2022/05/22 05:53:11;;;;;;;6.93;4.30;;;8.60;99.90;;;;;;4927069;28;20421;-85
2022/05/22 05:55:41;;;;;;;10.15;4.18;;;8.50;99.90;;;;;;4943935;28;20048;-84
2022/05/22 05:58:31;;;;;;;6.10;4.70;;;8.50;99.90;;;;;;4944217;28;20873;-87
2022/05/22 06:01:17;;;;;;;10.98;4.68;;;8.50;99.90;;;;;;4926744;28;20122;-85
2022/05/22 06:03:44;;;;;;;7.82;3.80;;;8.60;99.90;;;;;;4927326;29;20043;-85
2022/05/22 06:06:13;;;;;;;14.20;5.43;;;8.60;99.90;;;;;;4945353;28;20325;-85
2022/05/22 06:08:41;;;;;;;5.78;3.95;;;8.70;99.90;;;;;;4945224;28;20061;-85
2022/05/22 06:11:44;;;;;;;11.50;4.53;;;8.70;99.90;;;;;;4925818;28;20072;-84
2022/05/22 06:14:21;;;;;;;8.05;4.40;;;8.70;99.90;;;;;;4922615;28;20516;-85
2022/05/22 06:16:50;;;;;;;5.90;4.55;;;8.70;99.90;;;;;;4925983;29;20051;-84
2022/05/22 06:19:53;;;;;;;8.50;4.78;;;8.80;99.90;;;;;;4927728;28;20053;-84
2022/05/22 06:22:15;;;;;;;6.07;4.60;;;8.80;99.90;;;;;;4923750;28;20452;-85
2022/05/22 06:24:43;;;;;;;9.65;4.63;;;8.90;99.90;;;;;;4952164;28;20579;-86
2022/05/22 06:27:20;;;;;;;9.13;4.93;;;8.90;99.90;;;;;;4940856;28;20063;-86
2022/05/22 06:30:15;;;;;;;10.85;3.83;;;8.90;99.90;;;;;;4935526;28;20047;-85
2022/05/22 06:33:07;;;;;;;9.00;3.88;;;8.90;99.90;;;;;;4930773;28;20058;-85
2022/05/22 06:35:57;;;;;;;11.23;4.05;;;9.00;99.90;;;;;;4944225;28;20059;-85
2022/05/22 06:41:42;;;;;;;8.70;5.15;;;9.10;99.90;;;;;;4939392;28;20051;-85
2022/05/22 06:44:29;;;;;;;12.18;4.43;;;9.10;99.90;;;;;;4947702;28;20078;-85
2022/05/22 06:47:15;;;;;;;10.30;5.18;;;9.10;99.90;;;;;;4947475;28;20145;-86
2022/05/22 06:50:09;;;;;;;10.32;4.82;;;9.10;99.90;;;;;;4945767;28;20541;-85
2022/05/22 06:52:44;;;;;;;13.20;5.00;;;9.10;99.90;;;;;;4930280;29;20106;-87
2022/05/22 06:55:23;;;;;;;8.63;4.50;;;9.10;99.90;;;;;;4928683;28;20090;-85
2022/05/22 06:58:25;;;;;;;6.78;3.83;;;9.10;99.90;;;;;;4924037;28;20066;-85
2022/05/22 07:01:18;;;;;;;10.05;5.03;;;9.20;99.90;;;;;;4938459;28;20043;-85
2022/05/22 07:04:08;;;;;;;11.35;7.30;;;9.20;99.90;;;;;;4929971;28;20584;-85
2022/05/22 07:06:35;;;;;;;11.05;5.13;;;9.30;99.90;;;;;;4946889;28;20057;-85
2022/05/22 07:09:16;;;;;;;8.02;4.30;;;9.30;99.90;;;;;;4945473;28;20055;-86
2022/05/22 07:12:11;;;;;;;8.35;4.45;;;9.40;99.90;;;;;;4945900;28;20134;-86
2022/05/22 07:14:55;;;;;;;10.18;4.20;;;9.40;99.90;;;;;;4940743;28;20115;-86
2022/05/22 07:17:48;;;;;;;6.03;4.57;;;9.40;99.90;;;;;;4906258;28;20154;-86
2022/05/22 07:20:37;;;;;;;9.32;4.28;;;9.50;99.90;;;;;;4928635;29;20415;-86
2022/05/22 07:23:18;;;;;;;7.40;4.90;;;9.50;99.90;;;;;;4946060;28;20047;-87
2022/05/22 07:26:12;;;;;;;8.75;4.45;;;9.50;99.90;;;;;;4929376;29;20555;-86
2022/05/22 07:29:14;;;;;;;5.50;3.92;;;9.50;99.90;;;;;;4935435;28;20048;-86
2022/05/22 07:32:00;;;;;;;8.25;4.32;;;9.60;99.90;;;;;;4925538;29;20074;-86
2022/05/22 07:34:49;;;;;;;10.30;4.95;;;9.70;99.90;;;;;;4928494;29;20057;-85
2022/05/22 07:37:40;;;;;;;7.32;4.07;;;9.60;99.90;;;;;;4939585;28;20075;-85
2022/05/22 07:40:33;;;;;;;13.85;5.57;;;9.60;99.90;;;;;;4940148;28;20043;-85
2022/05/22 07:43:16;;;;;;;6.90;4.22;;;9.80;99.90;;;;;;4921032;28;20076;-85
2022/05/22 07:46:13;;;;;;;6.25;4.18;;;9.90;99.90;;;;;;4883546;29;20044;-85
2022/05/22 07:48:49;;;;;;;8.40;5.22;;;9.80;99.90;;;;;;4923835;29;20092;-86
2022/05/22 07:51:22;;;;;;;7.32;4.50;;;9.90;99.90;;;;;;4939228;28;20146;-85
2022/05/22 07:54:10;;;;;;;7.35;4.15;;;9.90;99.90;;;;;;4944530;28;20477;-86
2022/05/22 07:57:03;;;;;;;9.48;3.83;;;10.00;99.90;;;;;;4946022;28;20054;-86
2022/05/22 07:59:40;;;;;;;5.80;3.65;;;10.10;99.90;;;;;;4925582;29;20055;-85
2022/05/22 08:02:43;;;;;;;6.28;4.47;;;10.00;99.90;;;;;;4943876;28;20639;-86
2022/05/22 08:05:17;;;;;;;7.53;4.07;;;10.00;99.90;;;;;;4941512;28;20043;-85
2022/05/22 08:07:50;;;;;;;6.10;4.22;;;10.00;99.90;;;;;;4931175;28;20101;-86
2022/05/22 08:10:37;;;;;;;7.53;4.30;;;9.90;99.90;;;;;;4942161;28;20525;-85
2022/05/22 08:13:11;;;;;;;6.70;4.80;;;10.00;99.90;;;;;;4922444;28;20059;-85
2022/05/22 08:15:40;;;;;;;6.07;3.85;;;10.00;99.90;;;;;;4929760;29;20488;-85
2022/05/22 08:18:22;;;;;;;7.97;3.63;;;10.10;99.90;;;;;;4929124;29;20059;-85
2022/05/22 08:20:49;;;;;;;5.55;3.47;;;10.30;99.90;;;;;;4928638;29;20596;-85
2022/05/22 08:23:20;;;;;;;6.95;3.58;;;10.50;99.90;;;;;;4926188;28;20043;-85
2022/05/22 08:26:08;;;;;;;5.85;4.70;;;10.60;99.90;;;;;;4944331;28;20047;-86
2022/05/22 08:28:41;;;;;;;8.07;4.72;;;10.60;99.90;;;;;;4928818;29;20427;-85
2022/05/22 08:31:10;;;;;;;5.95;3.95;;;10.50;99.90;;;;;;4943686;28;20053;-85
2022/05/22 08:33:40;;;;;;;8.13;4.60;;;10.50;99.90;;;;;;4911673;29;20048;-86
2022/05/22 08:36:09;;;;;;;5.40;3.65;;;10.50;99.90;;;;;;4926021;28;20106;-86
2022/05/22 08:38:39;;;;;;;9.32;3.90;;;10.40;99.90;;;;;;4945957;28;20130;-86
2022/05/22 08:41:13;;;;;;;8.13;4.32;;;10.40;99.90;;;;;;4946956;28;20106;-86
2022/05/22 08:43:52;;;;;;;3.47;3.15;;;10.40;99.90;;;;;;4922683;29;20047;-86
2022/05/22 08:46:36;;;;;;;6.07;5.32;;;10.50;99.90;;;;;;4943206;28;20111;-86
2022/05/22 08:49:20;;;;;;;;;;;10.50;99.90;;;;;;4941334;28;20051;-86
2022/05/22 08:52:18;;;;;;;4.82;3.75;;;10.60;99.90;;;;;;4944907;28;19926;-86
2022/05/22 08:55:17;;;;;;;8.40;4.38;;;10.50;99.90;;;;;;4927654;29;20051;-85
2022/05/22 09:01:01;;;;;;;6.22;4.40;;;10.60;99.90;;;;;;4941029;28;20050;-86
2022/05/22 09:03:49;;;;;;;4.47;3.80;;;10.70;99.90;;;;;;4936918;28;20065;-86
2022/05/22 09:06:26;;;;;;;7.78;3.70;;;10.80;99.90;;;;;;4938784;28;20043;-86
2022/05/22 09:08:53;;;;;;;7.65;3.35;;;10.90;99.90;;;;;;4938923;28;20059;-87
2022/05/22 09:11:46;;;;;;;3.83;3.25;;;10.80;99.90;;;;;;4938998;28;20051;-87
2022/05/22 09:14:41;;;;;;;8.23;4.03;;;10.60;99.90;;;;;;4899361;28;20046;-86
2022/05/22 09:17:17;;;;;;;4.50;3.72;;;10.60;99.90;;;;;;4926318;29;20055;-87
2022/05/22 09:19:53;;;;;;;9.75;4.40;;;10.30;99.90;;;;;;4927241;29;20055;-87
2022/05/22 09:22:31;;;;;;;9.32;4.07;;;10.30;99.90;;;;;;4942375;28;20404;-86
2022/05/22 09:25:16;;;;;;;10.77;4.10;;;10.30;99.90;;;;;;4945273;28;20109;-86
2022/05/22 09:28:14;;;;;;;11.40;3.90;;;10.30;99.90;;;;;;4918956;29;20064;-85
2022/05/22 09:31:09;;;;;;;8.45;4.75;;;10.30;99.90;;;;;;4945158;28;20055;-87
2022/05/22 09:33:53;;;;;;;8.85;3.88;;;10.20;99.90;;;;;;4923430;29;20431;-86
2022/05/22 09:36:27;;;;;;;9.10;3.78;;;10.30;99.90;;;;;;4930569;28;20051;-86
2022/05/22 09:39:31;;;;;;;10.32;4.32;;;10.40;99.90;;;;;;4948014;28;20034;-88
2022/05/22 09:42:20;;;;;;;8.95;3.63;;;10.40;99.90;;;;;;4929877;29;20420;-87
2022/05/22 09:44:55;;;;;;;14.02;5.70;;;10.40;99.90;;;;;;4936445;28;20047;-89
2022/05/22 09:47:56;;;;;;;10.77;5.43;;;10.50;99.90;;;;;;4927333;28;20417;-88
2022/05/22 09:51:03;;;;;;;6.63;4.00;;;10.50;99.90;;;;;;4940850;28;20126;-87
2022/05/22 09:53:38;;;;;;;10.23;4.50;;;10.50;99.90;;;;;;4922089;28;20335;-86
2022/05/22 09:56:24;;;;;;;13.75;5.15;;;10.50;99.90;;;;;;4945813;28;20055;-86
2022/05/22 09:59:11;;;;;;;9.13;4.45;;;10.70;99.90;;;;;;4927979;29;20059;-88
2022/05/22 10:01:45;;;;;;;6.70;4.05;;;10.60;99.90;;;;;;4940230;28;20051;-86
2022/05/22 10:04:41;;;;;;;10.43;3.60;;;10.60;99.90;;;;;;4944895;28;20051;-86
2022/05/22 10:07:35;;;;;;;7.03;4.45;;;10.70;99.90;;;;;;4945789;28;20043;-88
2022/05/22 10:10:08;;;;;;;8.32;4.45;;;10.70;99.90;;;;;;4942253;28;20059;-88
2022/05/22 10:12:49;;;;;;;6.60;4.28;;;10.80;99.90;;;;;;4950061;28;20389;-88
2022/05/22 10:15:40;;;;;;;8.05;4.13;;;10.90;99.90;;;;;;4929182;28;20048;-87
2022/05/22 10:18:25;;;;;;;8.40;5.15;;;10.90;99.90;;;;;;4930118;29;20053;-86
2022/05/22 10:21:22;;;;;;;6.25;4.63;;;11.00;99.90;;;;;;4929488;29;20043;-87
2022/05/22 10:24:21;;;;;;;8.35;4.47;;;11.20;99.90;;;;;;4942972;28;20040;-86
2022/05/22 10:26:52;;;;;;;5.10;3.72;;;11.30;99.90;;;;;;4948591;28;20074;-88
2022/05/22 10:29:25;;;;;;;6.13;3.95;;;11.40;99.90;;;;;;4929377;28;21812;-87
2022/05/22 10:32:06;;;;;;;7.78;3.97;;;11.30;99.90;;;;;;4931085;29;20051;-86
2022/05/22 10:35:02;;;;;;;6.95;4.97;;;11.40;99.90;;;;;;4925909;29;20039;-86
2022/05/22 10:37:45;;;;;;;12.15;4.53;;;11.40;99.90;;;;;;4906269;28;20396;-86
2022/05/22 10:40:21;;;;;;;7.03;4.90;;;11.50;99.90;;;;;;4951469;28;20074;-89
2022/05/22 10:42:53;;;;;;;7.85;4.00;;;11.50;99.90;;;;;;4926394;29;20027;-86
2022/05/22 10:45:23;;;;;;;6.43;4.18;;;11.50;99.90;;;;;;4946332;28;20466;-85
2022/05/22 10:47:52;;;;;;;5.57;3.78;;;11.60;99.90;;;;;;4944378;28;20051;-87
2022/05/22 10:50:25;;;;;;;6.20;4.30;;;11.60;99.90;;;;;;4941820;28;20396;-86
2022/05/22 10:52:53;;;;;;;8.57;4.53;;;11.70;99.90;;;;;;4929247;29;20058;-87
2022/05/22 10:55:44;;;;;;;13.43;5.00;;;11.70;99.90;;;;;;4920032;28;20146;-87
2022/05/22 10:58:32;;;;;;;6.63;3.45;;;11.80;99.90;;;;;;4948027;28;20396;-86
2022/05/22 11:01:04;;;;;;;8.82;5.80;;;11.90;99.90;;;;;;4945426;28;20047;-85
2022/05/22 11:03:34;;;;;;;7.75;4.88;;;12.00;99.90;;;;;;4927699;28;20062;-86
2022/05/22 11:06:14;;;;;;;6.13;3.17;;;12.00;99.90;;;;;;4927957;29;20524;-86
2022/05/22 11:08:48;;;;;;;4.25;3.85;;;11.80;99.90;;;;;;4948520;28;20067;-86
2022/05/22 11:11:28;;;;;;;5.32;4.38;;;11.70;99.90;;;;;;4913395;28;20130;-86
2022/05/22 11:14:12;;;;;;;5.97;4.35;;;11.70;99.90;;;;;;4910204;29;20448;-87
2022/05/22 11:16:40;;;;;;;5.78;4.00;;;11.70;99.90;;;;;;4930444;29;20055;-85
2022/05/22 11:19:24;;;;;;;5.25;4.13;;;11.70;99.90;;;;;;4940096;28;20139;-86
2022/05/22 11:22:00;;;;;;;6.60;4.13;;;11.30;99.90;;;;;;4928921;28;20090;-87
2022/05/22 11:24:54;;;;;;;5.60;4.50;;;11.10;99.90;;;;;;4943531;28;20321;-86
2022/05/22 11:28:13;;;;;;;4.60;3.30;;;11.00;99.90;;;;;;4919277;28;20055;-86
2022/05/22 11:31:04;;;;;;;5.72;3.50;;;11.00;99.90;;;;;;4858345;29;20118;-86
2022/05/22 11:34:07;;;;;;;9.63;5.95;;;11.00;99.90;;;;;;4859532;29;20050;-86
2022/05/22 11:36:54;;;;;;;3.97;3.53;;;11.00;99.90;;;;;;4889413;29;20046;-87
2022/05/22 11:39:36;;;;;;;8.23;3.47;;;11.00;99.90;;;;;;4912898;28;20586;-86
2022/05/22 11:42:25;;;;;;;7.78;3.35;;;11.10;99.90;;;;;;4947360;28;20039;-86
2022/05/22 11:45:13;;;;;;;8.02;4.60;;;11.20;99.90;;;;;;4944286;28;20665;-87
2022/05/22 11:48:18;;;;;;;5.20;3.75;;;11.20;99.90;;;;;;4923575;29;20470;-87
2022/05/22 11:50:57;;;;;;;4.63;3.67;;;11.20;99.90;;;;;;4943031;28;20122;-87
2022/05/22 11:54:02;;;;;;;9.73;4.95;;;11.10;99.90;;;;;;4945391;28;20047;-86
2022/05/22 11:56:51;;;;;;;8.30;3.97;;;11.20;99.90;;;;;;4926878;29;20058;-84
2022/05/22 11:59:43;;;;;;;4.63;3.78;;;11.10;99.90;;;;;;4936500;28;20130;-87
2022/05/22 12:02:20;;;;;;;4.97;4.47;;;11.00;99.90;;;;;;4921749;29;21529;-87
2022/05/22 12:04:56;;;;;;;4.75;3.20;;;11.00;99.90;;;;;;4927262;29;20058;-88
2022/05/22 12:07:24;;;;;;;4.90;3.15;;;10.80;99.90;;;;;;4944672;28;20047;-87
2022/05/22 12:09:59;;;;;;;6.82;4.28;;;10.90;99.90;;;;;;4945315;28;20106;-87
2022/05/22 12:12:49;;;;;;;11.77;4.68;;;10.80;99.90;;;;;;4927572;29;20551;-87
2022/05/22 12:15:45;;;;;;;4.78;3.45;;;10.80;99.90;;;;;;4943616;28;20492;-87
2022/05/22 12:18:30;;;;;;;5.18;3.55;;;10.90;99.90;;;;;;4946484;28;20354;-85
2022/05/22 12:21:24;;;;;;;6.72;3.58;;;11.00;99.90;;;;;;4923989;29;20135;-86
2022/05/22 12:23:59;;;;;;;5.85;3.50;;;11.00;99.90;;;;;;4944449;28;20506;-86
2022/05/22 12:26:31;;;;;;;5.55;3.53;;;10.90;99.90;;;;;;4942902;28;20043;-85
2022/05/22 12:29:08;;;;;;;8.45;4.38;;;10.90;99.90;;;;;;4924754;28;20951;-87
2022/05/22 12:31:53;;;;;;;6.95;3.90;;;11.00;99.90;;;;;;4943307;28;20130;-90
2022/05/22 12:34:36;;;;;;;7.55;4.60;;;11.20;99.90;;;;;;4946336;28;20442;-85
2022/05/22 12:37:09;;;;;;;9.13;4.82;;;11.20;99.90;;;;;;4921995;29;20051;-87
2022/05/22 12:39:58;;;;;;;5.80;3.97;;;11.40;99.90;;;;;;4948089;28;20500;-88
2022/05/22 12:42:32;;;;;;;5.55;3.35;;;11.40;99.90;;;;;;4942045;28;20432;-87
2022/05/22 12:45:01;;;;;;;5.22;3.47;;;11.50;99.90;;;;;;4939323;28;20871;-88
2022/05/22 12:47:43;;;;;;;5.47;3.70;;;11.30;99.90;;;;;;4938370;28;20047;-85
2022/05/22 12:50:23;;;;;;;5.15;3.70;;;11.20;99.90;;;;;;4923111;29;20516;-87
2022/05/22 12:52:52;;;;;;;6.85;3.92;;;11.30;99.90;;;;;;4928827;28;20066;-87
2022/05/22 12:55:31;;;;;;;5.60;3.85;;;11.40;99.90;;;;;;4944014;28;22137;-87
2022/05/22 12:58:01;;;;;;;6.35;3.20;;;11.50;99.90;;;;;;4943539;28;20063;-87
2022/05/22 13:00:40;;;;;;;5.90;3.67;;;11.70;99.90;;;;;;4943524;28;20540;-87
2022/05/22 13:03:09;;;;;;;6.22;3.97;;;11.70;99.90;;;;;;4924177;28;21110;-87
2022/05/22 13:05:38;;;;;;;5.68;3.58;;;11.60;99.90;;;;;;4925123;29;20042;-87
2022/05/22 13:08:31;;;;;;;5.10;4.57;;;11.80;99.90;;;;;;4926255;28;20075;-88
2022/05/22 13:11:00;;;;;;;4.80;3.35;;;11.70;99.90;;;;;;4912377;28;20483;-85
2022/05/22 13:13:45;;;;;;;8.05;4.45;;;11.60;99.90;;;;;;4948367;28;20047;-85
2022/05/22 13:16:13;;;;;;;5.22;4.05;;;11.60;99.90;;;;;;4942677;28;20401;-86
2022/05/22 13:18:49;;;;;;;6.90;3.90;;;11.80;99.90;;;;;;4943978;28;20055;-87
2022/05/22 13:21:40;;;;;;;3.95;3.50;;;12.00;99.90;;;;;;4924262;28;20058;-86
2022/05/22 13:24:27;;;;;;;7.35;5.07;;;12.30;99.90;;;;;;4923877;29;20059;-86
2022/05/22 13:27:20;;;;;;;5.07;3.90;;;12.60;99.90;;;;;;4919281;28;20051;-86
2022/05/22 13:30:06;;;;;;;4.47;3.90;;;12.60;99.90;;;;;;4942657;28;20047;-86
2022/05/22 13:32:55;;;;;;;4.60;3.22;;;12.70;99.90;;;;;;4928718;28;20043;-87
2022/05/22 13:35:25;;;;;;;5.43;4.82;;;12.60;99.90;;;;;;4909439;28;20051;-86
2022/05/22 13:37:55;;;;;;;9.20;3.80;;;12.10;99.90;;;;;;4914047;29;20094;-87
2022/05/22 13:40:43;;;;;;;7.93;4.07;;;12.00;99.90;;;;;;4928881;28;20043;-89
2022/05/22 13:43:33;;;;;;;4.15;3.75;;;11.60;99.90;;;;;;4919955;28;20400;-86
2022/05/22 13:46:45;;;;;;;4.97;4.13;;;11.70;99.90;;;;;;4909523;29;20079;-88
2022/05/22 13:49:27;;;;;;;3.20;2.90;;;11.70;99.90;;;;;;4899817;28;20146;-87
2022/05/22 13:52:34;;;;;;;8.45;3.97;;;11.90;99.90;;;;;;4927584;28;20047;-86
2022/05/22 13:55:18;;;;;;;3.83;3.20;;;12.10;99.90;;;;;;4938523;28;20102;-86
2022/05/22 13:58:01;;;;;;;6.18;3.45;;;12.10;99.90;;;;;;4940682;28;20134;-88